createdAt,value
2023-01-07T00:00:15.312Z,6.30
2023-01-07T00:03:03.567Z,6.70
2023-01-07T00:05:31.936Z,7.10
2023-01-07T00:08:00.198Z,8.40
2023-01-07T00:10:28.493Z,7.90
2023-01-07T00:12:56.745Z,7.40
2023-01-07T00:15:24.812Z,6.90
2023-01-07T00:17:52.872Z,8.00
2023-01-07T00:20:21.248Z,7.60
2023-01-07T00:22:50.718Z,7.20
2023-01-07T00:25:18.755Z,7.70
2023-01-07T00:27:47.094Z,8.60
2023-01-07T00:30:16.128Z,8.10
2023-01-07T00:32:59.715Z,7.90
2023-01-07T00:35:28.524Z,9.30
2023-01-07T00:37:56.598Z,9.80
2023-01-07T00:40:24.640Z,9.70
2023-01-07T00:42:55.685Z,8.90
2023-01-07T00:45:25.484Z,9.50
2023-01-07T00:47:53.633Z,11.80
2023-01-07T00:50:22.960Z,10.80
2023-01-07T00:52:51.073Z,10.80
2023-01-07T00:55:19.131Z,11.80
2023-01-07T00:57:47.022Z,12.70
2023-01-07T01:00:17.163Z,11.60
2023-01-07T01:02:46.821Z,11.80
2023-01-07T01:05:15.546Z,12.90
2023-01-07T01:07:43.756Z,13.50
2023-01-07T01:10:15.911Z,13.00
2023-01-07T01:12:44.502Z,13.00
2023-01-07T01:15:14.447Z,14.60
2023-01-07T01:17:42.938Z,14.60
2023-01-07T01:20:13.896Z,14.00
2023-01-07T01:22:43.357Z,13.90
2023-01-07T01:25:12.249Z,12.40
2023-01-07T01:27:40.204Z,12.20
2023-01-07T01:30:08.606Z,9.50
2023-01-07T01:32:38.140Z,10.00
2023-01-07T01:35:06.791Z,9.40
2023-01-07T01:37:34.779Z,8.90
2023-01-07T01:40:04.058Z,7.90
2023-01-07T01:42:32.949Z,8.40
2023-01-07T01:45:02.197Z,8.00
2023-01-07T01:47:36.312Z,8.00
2023-01-07T01:50:07.880Z,7.30
2023-01-07T01:52:48.909Z,7.80
2023-01-07T01:55:22.657Z,7.30
2023-01-07T01:57:55.956Z,7.20
2023-01-07T02:00:24.778Z,6.50
2023-01-07T02:02:57.198Z,7.20
2023-01-07T02:05:33.215Z,7.80
2023-01-07T02:08:01.293Z,7.90
2023-01-07T02:10:31.956Z,7.40
2023-01-07T02:13:19.436Z,8.10
2023-01-07T02:15:56.063Z,8.70
2023-01-07T02:18:52.544Z,8.00
2023-01-07T02:21:32.757Z,7.60
2023-01-07T02:24:03.715Z,8.00
2023-01-07T02:26:50.548Z,7.60
2023-01-07T02:29:38.235Z,7.20
2023-01-07T02:32:50.438Z,7.10
2023-01-07T02:35:56.242Z,7.90
2023-01-07T02:38:41.209Z,8.00
2023-01-07T02:41:29.036Z,7.40
2023-01-07T02:44:10.749Z,8.00
2023-01-07T02:46:52.497Z,7.60
2023-01-07T02:49:21.900Z,7.20
2023-01-07T02:51:52.008Z,7.20
2023-01-07T02:54:27.381Z,7.20
2023-01-07T02:57:01.460Z,8.20
2023-01-07T02:59:40.855Z,7.20
2023-01-07T03:02:28.815Z,7.20
2023-01-07T03:05:33.828Z,7.60
2023-01-07T03:08:24.665Z,7.40
2023-01-07T03:10:59.719Z,7.10
2023-01-07T03:14:06.195Z,7.40
2023-01-07T03:16:42.211Z,7.10
2023-01-07T03:19:14.877Z,7.00
2023-01-07T03:21:45.157Z,6.40
2023-01-07T03:24:14.866Z,7.20
2023-01-07T03:26:47.223Z,7.40
2023-01-07T03:29:17.602Z,6.40
2023-01-07T03:32:06.034Z,6.10
2023-01-07T03:34:35.064Z,6.30
2023-01-07T03:37:10.588Z,6.30
2023-01-07T03:39:43.785Z,5.70
2023-01-07T03:42:32.123Z,6.70
2023-01-07T03:45:01.760Z,7.10
2023-01-07T03:47:32.074Z,6.70
2023-01-07T03:50:00.121Z,6.20
2023-01-07T03:52:28.513Z,7.00
2023-01-07T03:54:56.541Z,7.20
2023-01-07T03:57:24.489Z,7.00
2023-01-07T03:59:52.489Z,6.70
2023-01-07T04:02:20.519Z,6.50
2023-01-07T04:04:49.613Z,7.00
2023-01-07T04:07:17.741Z,6.70
2023-01-07T04:09:47.282Z,6.20
2023-01-07T04:12:15.291Z,6.40
2023-01-07T04:14:43.644Z,6.50
2023-01-07T04:17:12.379Z,6.40
2023-01-07T04:19:40.317Z,5.90
2023-01-07T04:22:10.316Z,6.00
2023-01-07T04:24:38.362Z,6.30
2023-01-07T04:27:06.453Z,5.70
2023-01-07T04:29:34.322Z,5.80
2023-01-07T04:32:02.913Z,6.10
2023-01-07T04:34:31.246Z,6.30
2023-01-07T04:36:59.660Z,5.70
2023-01-07T04:39:28.485Z,5.70
2023-01-07T04:41:57.582Z,5.60
2023-01-07T04:44:25.558Z,5.40
2023-01-07T04:46:53.992Z,5.50
2023-01-07T04:49:22.353Z,5.10
2023-01-07T04:51:50.607Z,5.30
2023-01-07T04:54:18.696Z,5.70
2023-01-07T04:56:46.728Z,6.00
2023-01-07T04:59:14.577Z,5.30
2023-01-07T05:01:43.420Z,5.70
2023-01-07T05:04:11.996Z,5.70
2023-01-07T05:06:40.011Z,6.00
2023-01-07T05:09:08.551Z,5.90
2023-01-07T05:11:36.519Z,5.90
2023-01-07T05:14:04.932Z,6.40
2023-01-07T05:16:33.843Z,5.80
2023-01-07T05:19:04.760Z,5.70
2023-01-07T05:21:35.149Z,5.90
2023-01-07T05:24:03.914Z,6.40
2023-01-07T05:26:32.037Z,6.20
2023-01-07T05:29:00.059Z,6.60
2023-01-07T05:31:29.037Z,6.80
2023-01-07T05:33:57.066Z,6.80
2023-01-07T05:36:25.318Z,6.60
2023-01-07T05:38:54.274Z,6.40
2023-01-07T05:41:22.289Z,6.60
2023-01-07T05:43:50.395Z,7.00
2023-01-07T05:46:18.584Z,6.70
2023-01-07T05:48:46.501Z,6.90
2023-01-07T05:51:14.417Z,6.70
2023-01-07T05:53:42.386Z,7.30
2023-01-07T05:56:10.257Z,7.10
2023-01-07T05:58:38.271Z,6.50
2023-01-07T06:01:06.182Z,6.70
2023-01-07T06:03:36.621Z,7.40
2023-01-07T06:06:07.380Z,7.90
2023-01-07T06:08:39.752Z,6.70
2023-01-07T06:11:08.497Z,7.10
2023-01-07T06:13:36.613Z,8.00
2023-01-07T06:16:07.656Z,7.70
2023-01-07T06:18:36.364Z,7.50
2023-01-07T06:21:04.710Z,7.30
2023-01-07T06:23:32.752Z,8.10
2023-01-07T06:26:00.850Z,7.80
2023-01-07T06:28:29.022Z,7.50
2023-01-07T06:30:57.413Z,7.50
2023-01-07T06:33:25.892Z,8.10
2023-01-07T06:35:53.802Z,8.10
2023-01-07T06:38:22.315Z,8.60
2023-01-07T06:40:51.987Z,8.60
2023-01-07T06:43:20.262Z,8.60
2023-01-07T06:45:48.582Z,8.90
2023-01-07T06:48:17.342Z,8.30
2023-01-07T06:50:46.332Z,8.70
2023-01-07T06:53:15.319Z,9.60
2023-01-07T06:55:49.209Z,9.00
2023-01-07T06:58:18.129Z,10.10
2023-01-07T07:00:46.637Z,14.00
2023-01-07T07:03:14.783Z,15.20
2023-01-07T07:05:42.975Z,13.70
2023-01-07T07:08:11.454Z,12.00
2023-01-07T07:10:43.262Z,12.10
2023-01-07T07:13:12.148Z,12.60
2023-01-07T07:15:40.553Z,13.00
2023-01-07T07:18:08.964Z,12.40
2023-01-07T07:20:37.130Z,13.20
2023-01-07T07:23:05.089Z,13.30
2023-01-07T07:25:33.116Z,14.30
2023-01-07T07:28:01.141Z,14.50
2023-01-07T07:30:46.866Z,13.10
2023-01-07T07:33:19.391Z,12.70
2023-01-07T07:35:48.439Z,16.60
2023-01-07T07:38:17.859Z,16.40
2023-01-07T07:40:46.904Z,16.60
2023-01-07T07:43:15.922Z,15.40
2023-01-07T07:45:44.592Z,14.60
2023-01-07T07:48:15.286Z,13.90
2023-01-07T07:50:45.194Z,14.20
2023-01-07T07:53:15.299Z,14.70
2023-01-07T07:55:44.102Z,13.10
2023-01-07T07:58:12.919Z,13.80
2023-01-07T08:00:42.179Z,13.50
2023-01-07T08:03:11.103Z,13.20
2023-01-07T08:05:42.343Z,13.00
2023-01-07T08:08:13.922Z,12.80
2023-01-07T08:10:42.359Z,12.70
2023-01-07T08:13:10.548Z,13.50
2023-01-07T08:15:38.515Z,14.80
2023-01-07T08:18:10.078Z,13.20
2023-01-07T08:20:39.717Z,12.30
2023-01-07T08:23:08.213Z,12.80
2023-01-07T08:25:36.717Z,12.80
2023-01-07T08:28:05.458Z,13.10
2023-01-07T08:30:33.981Z,11.30
2023-01-07T08:33:08.755Z,12.60
2023-01-07T08:35:37.140Z,12.50
2023-01-07T08:38:07.420Z,12.20
2023-01-07T08:40:37.504Z,11.90
2023-01-07T08:43:07.580Z,13.40
2023-01-07T08:45:35.918Z,13.60
2023-01-07T08:48:05.105Z,13.80
2023-01-07T08:50:34.516Z,12.90
2023-01-07T08:53:02.431Z,13.60
2023-01-07T08:55:30.396Z,14.30
2023-01-07T08:57:58.745Z,15.10
2023-01-07T09:00:27.381Z,13.80
2023-01-07T09:02:55.519Z,13.70
2023-01-07T09:05:24.636Z,14.30
2023-01-07T09:07:53.793Z,15.20
2023-01-07T09:10:22.415Z,14.90
2023-01-07T09:12:53.176Z,15.70
2023-01-07T09:15:21.764Z,16.50
2023-01-07T09:17:49.836Z,18.10
2023-01-07T09:20:17.979Z,16.90
2023-01-07T09:22:47.054Z,17.70
2023-01-07T09:25:16.008Z,16.20
2023-01-07T09:27:46.378Z,15.10
2023-01-07T09:30:15.587Z,16.80
2023-01-07T09:32:46.497Z,16.20
2023-01-07T09:35:16.313Z,14.80
2023-01-07T09:37:45.167Z,14.40
2023-01-07T09:40:23.030Z,14.10
2023-01-07T09:43:09.211Z,13.10
2023-01-07T09:45:43.471Z,13.30
2023-01-07T09:48:41.003Z,14.00
2023-01-07T09:51:34.929Z,14.10
2023-01-07T09:54:06.329Z,13.50
2023-01-07T09:56:37.155Z,13.50
2023-01-07T09:59:07.409Z,14.80
2023-01-07T10:01:35.652Z,16.10
2023-01-07T10:04:50.089Z,15.50
2023-01-07T10:07:33.220Z,14.80
2023-01-07T10:10:07.839Z,15.10
2023-01-07T10:12:48.969Z,16.00
2023-01-07T10:15:45.306Z,16.50
2023-01-07T10:18:16.867Z,16.20
2023-01-07T10:21:10.095Z,15.50
2023-01-07T10:23:46.325Z,15.30
2023-01-07T10:26:42.074Z,14.10
2023-01-07T10:29:39.875Z,13.70
2023-01-07T10:32:19.838Z,13.60
2023-01-07T10:34:51.866Z,13.50
2023-01-07T10:37:50.717Z,14.30
2023-01-07T10:40:32.874Z,13.10
2023-01-07T10:43:20.137Z,13.80
2023-01-07T10:46:11.242Z,14.20
2023-01-07T10:49:06.152Z,13.30
2023-01-07T10:51:43.022Z,12.90
2023-01-07T10:54:29.748Z,13.30
2023-01-07T10:57:04.104Z,13.60
2023-01-07T10:59:33.148Z,12.30
2023-01-07T11:02:01.729Z,11.80
2023-01-07T11:04:30.501Z,12.70
2023-01-07T11:07:06.918Z,12.10
2023-01-07T11:09:39.506Z,12.10
2023-01-07T11:12:19.842Z,12.30
2023-01-07T11:14:50.041Z,12.70
2023-01-07T11:17:37.666Z,12.90
2023-01-07T11:20:07.016Z,13.30
2023-01-07T11:22:37.761Z,12.90
2023-01-07T11:25:28.430Z,12.10
2023-01-07T11:27:59.744Z,12.80
2023-01-07T11:30:32.535Z,13.20
2023-01-07T11:33:06.369Z,13.30
2023-01-07T11:35:35.034Z,12.90
2023-01-07T11:38:23.126Z,12.90
2023-01-07T11:40:57.863Z,13.30
2023-01-07T11:43:48.701Z,14.00
2023-01-07T11:46:20.302Z,12.50
2023-01-07T11:48:53.997Z,12.90
2023-01-07T11:51:24.922Z,13.40
2023-01-07T11:53:57.745Z,13.40
2023-01-07T11:56:29.348Z,13.20
2023-01-07T11:59:16.287Z,13.30
2023-01-07T12:01:50.315Z,13.50
2023-01-07T12:04:23.558Z,13.10
2023-01-07T12:07:00.574Z,13.40
2023-01-07T12:09:32.580Z,12.70
2023-01-07T12:12:40.441Z,13.50
2023-01-07T12:15:24.356Z,16.00
2023-01-07T12:18:03.620Z,14.40
2023-01-07T12:20:48.164Z,13.90
2023-01-07T12:23:29.216Z,14.30
2023-01-07T12:26:08.216Z,14.20
2023-01-07T12:28:57.690Z,14.40
2023-01-07T12:31:38.665Z,14.20
2023-01-07T12:34:33.441Z,15.60
2023-01-07T12:37:32.371Z,16.30
2023-01-07T12:40:13.108Z,13.30
2023-01-07T12:42:51.187Z,12.90
2023-01-07T12:45:26.453Z,13.30
2023-01-07T12:48:02.591Z,13.90
2023-01-07T12:50:51.156Z,14.90
2023-01-07T12:53:35.758Z,13.70
2023-01-07T12:56:13.180Z,13.30
2023-01-07T12:58:52.372Z,13.50
2023-01-07T13:01:27.084Z,14.10
2023-01-07T13:04:04.991Z,13.70
2023-01-07T13:07:17.078Z,14.20
2023-01-07T13:09:54.093Z,14.30
2023-01-07T13:12:45.430Z,14.30
2023-01-07T13:15:23.664Z,13.00
2023-01-07T13:18:03.511Z,13.10
2023-01-07T13:20:50.968Z,13.90
2023-01-07T13:23:57.074Z,13.50
2023-01-07T13:26:35.701Z,12.80
2023-01-07T13:29:42.013Z,12.20
2023-01-07T13:32:23.186Z,13.10
2023-01-07T13:35:22.367Z,13.40
2023-01-07T13:38:02.946Z,14.70
2023-01-07T13:40:51.349Z,14.10
2023-01-07T13:43:55.269Z,14.40
2023-01-07T13:46:35.608Z,16.60
2023-01-07T13:49:04.626Z,17.30
2023-01-07T13:51:38.299Z,16.20
2023-01-07T13:54:11.818Z,15.50
2023-01-07T13:56:40.697Z,14.20
2023-01-07T13:59:30.114Z,13.10
2023-01-07T14:02:18.829Z,13.20
2023-01-07T14:05:11.129Z,12.50
2023-01-07T14:07:55.676Z,11.90
2023-01-07T14:10:34.693Z,14.70
2023-01-07T14:13:12.868Z,14.00
2023-01-07T14:15:51.310Z,12.90
2023-01-07T14:18:55.603Z,14.00
2023-01-07T14:21:45.959Z,14.50
2023-01-07T14:25:02.220Z,14.80
2023-01-07T14:27:43.270Z,15.10
2023-01-07T14:30:26.033Z,16.60
2023-01-07T14:33:00.200Z,15.80
2023-01-07T14:35:41.222Z,17.70
2023-01-07T14:38:50.004Z,18.00
2023-01-07T14:41:21.355Z,17.70
2023-01-07T14:44:03.184Z,17.50
2023-01-07T14:46:35.009Z,16.60
2023-01-07T14:49:11.251Z,15.20
2023-01-07T14:52:10.319Z,15.50
2023-01-07T14:54:51.344Z,14.80
2023-01-07T14:57:55.806Z,15.70
2023-01-07T15:00:50.062Z,16.40
2023-01-07T15:03:37.644Z,16.80
2023-01-07T15:06:21.195Z,17.40
2023-01-07T15:09:21.759Z,16.80
2023-01-07T15:12:12.365Z,16.60
2023-01-07T15:15:07.959Z,16.00
2023-01-07T15:17:39.404Z,16.40
2023-01-07T15:20:10.451Z,17.20
2023-01-07T15:23:21.829Z,17.20
2023-01-07T15:26:06.290Z,15.30
2023-01-07T15:29:08.968Z,16.90
2023-01-07T15:32:03.694Z,20.60
2023-01-07T15:34:38.351Z,27.20
2023-01-07T15:37:11.370Z,23.90
2023-01-07T15:39:45.553Z,20.70
2023-01-07T15:42:17.563Z,19.60
2023-01-07T15:44:50.953Z,19.00
2023-01-07T15:47:37.509Z,18.00
2023-01-07T15:50:28.859Z,18.10
2023-01-07T15:53:12.673Z,18.80
2023-01-07T15:56:06.150Z,18.10
2023-01-07T15:58:46.360Z,18.00
2023-01-07T16:01:21.556Z,19.10
2023-01-07T16:03:54.163Z,18.50
2023-01-07T16:06:46.354Z,17.90
2023-01-07T16:09:18.742Z,18.10
2023-01-07T16:11:47.771Z,17.70
2023-01-07T16:14:21.023Z,19.40
2023-01-07T16:17:04.716Z,28.10
2023-01-07T16:19:33.089Z,19.10
2023-01-07T16:22:01.365Z,18.90
2023-01-07T16:24:29.994Z,21.70
2023-01-07T16:27:05.162Z,23.60
2023-01-07T16:29:39.543Z,22.10
2023-01-07T16:32:08.023Z,23.60
2023-01-07T16:34:36.959Z,22.90
2023-01-07T16:37:14.407Z,22.40
2023-01-07T16:39:47.623Z,19.80
2023-01-07T16:42:21.391Z,20.10
2023-01-07T16:44:56.000Z,20.70
2023-01-07T16:47:27.596Z,20.10
2023-01-07T16:49:59.228Z,20.40
2023-01-07T16:52:34.653Z,19.40
2023-01-07T16:55:04.216Z,20.00
2023-01-07T16:57:42.121Z,20.60
2023-01-07T17:00:20.256Z,21.50
2023-01-07T17:02:57.849Z,20.40
2023-01-07T17:05:38.055Z,21.50
2023-01-07T17:08:20.687Z,21.30
2023-01-07T17:11:16.401Z,23.60
2023-01-07T17:13:45.776Z,23.30
2023-01-07T17:16:31.230Z,26.70
2023-01-07T17:19:26.217Z,28.50
2023-01-07T17:21:57.073Z,31.10
2023-01-07T17:24:29.449Z,29.60
2023-01-07T17:27:00.682Z,30.60
2023-01-07T17:29:49.430Z,29.90
2023-01-07T17:32:18.377Z,31.60
2023-01-07T17:34:46.549Z,33.00
2023-01-07T17:37:16.859Z,32.30
2023-01-07T17:39:45.061Z,34.20
2023-01-07T17:42:41.695Z,34.20
2023-01-07T17:45:19.649Z,36.10
2023-01-07T17:47:49.791Z,34.60
2023-01-07T17:50:19.613Z,42.70
2023-01-07T17:52:53.157Z,44.20
2023-01-07T17:55:30.772Z,54.60
2023-01-07T17:58:01.333Z,61.30
2023-01-07T18:00:33.523Z,58.50
2023-01-07T18:03:01.848Z,64.50
2023-01-07T18:05:30.356Z,56.70
2023-01-07T18:08:01.306Z,52.90
2023-01-07T18:10:51.887Z,54.70
2023-01-07T18:13:20.807Z,56.10
2023-01-07T18:15:49.677Z,58.70
2023-01-07T18:18:19.603Z,59.80
2023-01-07T18:20:49.370Z,55.10
2023-01-07T18:23:18.327Z,52.90
2023-01-07T18:25:47.200Z,60.80
2023-01-07T18:28:16.824Z,66.30
2023-01-07T18:30:46.298Z,72.80
2023-01-07T18:33:15.580Z,71.20
2023-01-07T18:35:45.093Z,70.90
2023-01-07T18:38:19.375Z,67.30
2023-01-07T18:40:48.062Z,61.80
2023-01-07T18:43:18.788Z,64.10
2023-01-07T18:45:48.482Z,62.70
2023-01-07T18:48:19.096Z,70.40
2023-01-07T18:50:50.382Z,71.80
2023-01-07T18:53:19.757Z,70.70
2023-01-07T18:55:59.283Z,75.60
2023-01-07T18:58:27.751Z,71.90
2023-01-07T19:01:01.685Z,79.90
2023-01-07T19:03:30.339Z,91.10
2023-01-07T19:06:05.098Z,98.90
2023-01-07T19:08:36.979Z,94.20
2023-01-07T19:11:14.187Z,88.50
2023-01-07T19:13:46.809Z,96.00
2023-01-07T19:16:20.969Z,85.40
2023-01-07T19:18:53.369Z,74.90
2023-01-07T19:21:22.096Z,62.80
2023-01-07T19:23:55.588Z,62.00
2023-01-07T19:26:23.823Z,61.60
2023-01-07T19:28:52.604Z,62.40
2023-01-07T19:31:20.904Z,59.80
2023-01-07T19:33:49.891Z,57.80
2023-01-07T19:36:24.190Z,54.30
2023-01-07T19:38:53.365Z,52.70
2023-01-07T19:41:22.825Z,52.30
2023-01-07T19:44:00.161Z,48.00
2023-01-07T19:46:28.916Z,49.60
2023-01-07T19:48:59.330Z,55.70
2023-01-07T19:51:33.940Z,55.10
2023-01-07T19:54:06.949Z,54.50
2023-01-07T19:56:36.685Z,53.20
2023-01-07T19:59:05.970Z,52.30
2023-01-07T20:01:37.837Z,56.70
2023-01-07T20:04:08.309Z,59.10
2023-01-07T20:06:41.771Z,57.40
2023-01-07T20:09:14.313Z,62.60
2023-01-07T20:11:44.808Z,64.20
2023-01-07T20:14:17.031Z,67.70
2023-01-07T20:16:47.431Z,62.10
2023-01-07T20:19:21.287Z,67.90
2023-01-07T20:21:51.963Z,66.10
2023-01-07T20:24:28.625Z,61.40
2023-01-07T20:27:07.977Z,63.40
2023-01-07T20:29:41.421Z,72.50
2023-01-07T20:32:12.729Z,72.30
2023-01-07T20:34:49.282Z,70.80
2023-01-07T20:37:19.454Z,70.60
2023-01-07T20:39:51.290Z,70.20
2023-01-07T20:42:23.679Z,68.30
2023-01-07T20:44:53.307Z,65.10
2023-01-07T20:47:23.281Z,65.40
2023-01-07T20:49:53.974Z,70.90
2023-01-07T20:52:24.242Z,70.80
2023-01-07T20:55:10.866Z,79.90
2023-01-07T20:57:41.194Z,76.50
2023-01-07T21:00:11.807Z,68.30
2023-01-07T21:02:42.873Z,66.20
2023-01-07T21:05:12.493Z,68.00
2023-01-07T21:07:43.956Z,73.90
2023-01-07T21:10:18.183Z,69.10
2023-01-07T21:12:50.546Z,67.30
2023-01-07T21:15:21.310Z,89.80
2023-01-07T21:17:53.732Z,72.80
2023-01-07T21:20:23.480Z,53.40
2023-01-07T21:22:52.659Z,53.90
2023-01-07T21:25:21.226Z,54.70
2023-01-07T21:27:50.038Z,51.10
2023-01-07T21:30:19.803Z,49.20
2023-01-07T21:32:48.618Z,51.00
2023-01-07T21:35:18.203Z,54.10
2023-01-07T21:37:50.307Z,47.10
2023-01-07T21:40:19.022Z,48.50
2023-01-07T21:42:47.353Z,45.50
2023-01-07T21:45:18.527Z,44.90
2023-01-07T21:47:47.274Z,47.90
2023-01-07T21:50:17.126Z,54.40
2023-01-07T21:52:46.493Z,55.50
2023-01-07T21:55:15.123Z,55.80
2023-01-07T21:57:43.757Z,52.40
2023-01-07T22:00:16.126Z,48.30
2023-01-07T22:02:45.329Z,48.60
2023-01-07T22:05:14.228Z,47.50
2023-01-07T22:07:42.850Z,49.00
2023-01-07T22:10:11.606Z,53.10
2023-01-07T22:12:40.210Z,53.00
2023-01-07T22:15:09.408Z,52.90
2023-01-07T22:17:38.252Z,51.90
2023-01-07T22:20:07.525Z,53.80
2023-01-07T22:22:36.383Z,56.40
2023-01-07T22:25:05.142Z,49.10
2023-01-07T22:27:34.121Z,46.30
2023-01-07T22:30:03.011Z,50.90
2023-01-07T22:32:31.189Z,47.20
2023-01-07T22:35:00.424Z,53.20
2023-01-07T22:37:29.997Z,50.10
2023-01-07T22:40:03.278Z,48.90
2023-01-07T22:42:43.585Z,50.30
2023-01-07T22:45:21.025Z,50.60
2023-01-07T22:47:51.290Z,49.80
2023-01-07T22:50:20.642Z,52.20
2023-01-07T22:52:52.955Z,51.40
2023-01-07T22:55:21.686Z,55.90
2023-01-07T22:57:51.312Z,55.20
2023-01-07T23:00:53.245Z,48.90
2023-01-07T23:03:24.161Z,50.90
2023-01-07T23:05:54.247Z,53.30
2023-01-07T23:08:23.920Z,50.10
2023-01-07T23:10:51.911Z,49.70
2023-01-07T23:13:20.158Z,53.60
2023-01-07T23:15:48.274Z,48.80
2023-01-07T23:18:17.039Z,49.40
2023-01-07T23:20:45.401Z,43.90
2023-01-07T23:23:13.886Z,38.30
2023-01-07T23:25:46.901Z,38.60
2023-01-07T23:28:17.491Z,40.00
2023-01-07T23:30:46.178Z,39.40
2023-01-07T23:33:14.841Z,36.80
2023-01-07T23:35:43.323Z,36.00
2023-01-07T23:38:11.309Z,37.60
2023-01-07T23:40:42.328Z,40.20
2023-01-07T23:43:11.200Z,37.90
2023-01-07T23:45:39.914Z,37.80
2023-01-07T23:48:08.193Z,39.60
2023-01-07T23:50:36.327Z,41.60
2023-01-07T23:53:04.387Z,38.90
2023-01-07T23:55:33.083Z,36.00
2023-01-07T23:58:01.039Z,36.60
